Time;durP1;ratioP1;P1;durP2;ratioP2;P2;SDS_P1;SDS_P2;PMS_P1;PMS_P2;Temp;Humidity;BMP_temperature;BMP_pressure;BME280_temperature;BME280_humidity;BME280_pressure;Samples;Min_cycle;Max_cycle;Signal;HPM_P1;HPM_P2
2024/01/10 00:01:36;;;;;;;84.90;37.00;;;;;;;-11.21;76.93;102520.35;105416;1259;69935;-46
2024/01/10 00:04:05;;;;;;;91.50;35.50;;;;;;;-11.18;77.44;102523.44;105362;1259;69983;-45
2024/01/10 00:06:33;;;;;;;87.70;35.20;;;;;;;-11.17;77.25;102525.36;105338;1257;74083;-46
2024/01/10 00:09:02;;;;;;;94.60;37.30;;;;;;;-11.20;76.73;102525.80;105316;1259;81482;-46
2024/01/10 00:11:30;;;;;;;85.50;37.70;;;;;;;-11.24;76.99;102519.11;105385;1259;72306;-46
2024/01/10 00:14:03;;;;;;;97.70;39.00;;;;;;;-11.26;76.84;102521.95;105312;1257;70017;-48
2024/01/10 00:16:31;;;;;;;93.60;39.50;;;;;;;-11.27;76.83;102523.73;105405;1259;70458;-48
2024/01/10 00:18:59;;;;;;;87.30;36.50;;;;;;;-11.28;76.81;102525.04;105337;1257;73946;-48
2024/01/10 00:21:28;;;;;;;101.80;41.90;;;;;;;-11.29;77.02;102523.76;105405;1256;81522;-47
2024/01/10 00:23:57;;;;;;;98.50;39.50;;;;;;;-11.32;76.95;102525.67;105384;1257;70667;-47
2024/01/10 00:26:25;;;;;;;94.60;39.70;;;;;;;-11.34;76.98;102518.77;105423;1259;69999;-49
2024/01/10 00:28:53;;;;;;;90.20;37.20;;;;;;;-11.33;76.94;102520.66;105314;1258;69976;-48
2024/01/10 00:31:31;;;;;;;100.80;41.80;;;;;;;-11.36;77.21;102522.47;105352;1255;75449;-46
2024/01/10 00:33:59;;;;;;;99.50;41.30;;;;;;;-11.37;77.03;102523.17;105364;1259;81484;-47
2024/01/10 00:36:28;;;;;;;101.50;42.30;;;;;;;-11.38;77.24;102518.21;105298;1257;72104;-47
2024/01/10 00:38:56;;;;;;;105.80;41.80;;;;;;;-11.37;77.52;102514.08;105330;1255;69944;-47
2024/01/10 00:41:24;;;;;;;87.80;38.60;;;;;;;-11.34;77.44;102513.54;105330;1255;69986;-47
2024/01/10 00:43:52;;;;;;;83.60;36.80;;;;;;;-11.32;77.54;102507.27;105400;1258;73626;-47
2024/01/10 00:46:21;;;;;;;93.00;36.50;;;;;;;-11.28;77.63;102509.30;105397;1257;81528;-47
2024/01/10 00:48:49;;;;;;;89.30;35.80;;;;;;;-11.22;77.74;102511.98;105316;1257;70367;-47
2024/01/10 00:51:17;;;;;;;96.20;37.60;;;;;;;-11.19;78.04;102510.23;105323;1259;69928;-48
2024/01/10 00:53:46;;;;;;;87.90;34.70;;;;;;;-11.13;77.81;102511.17;105332;1259;69992;-47
2024/01/10 00:56:14;;;;;;;89.70;35.70;;;;;;;-11.17;77.63;102505.49;105375;1257;73145;-48
2024/01/10 00:58:42;;;;;;;94.20;36.60;;;;;;;-11.22;77.51;102509.65;105342;1259;81816;-47
2024/01/10 01:01:10;;;;;;;90.60;37.10;;;;;;;-11.24;77.39;102506.29;105312;1257;71536;-47
2024/01/10 01:03:39;;;;;;;83.00;34.40;;;;;;;-11.30;77.11;102501.41;105376;1258;69966;-47
2024/01/10 01:06:07;;;;;;;86.80;35.20;;;;;;;-11.34;76.89;102495.77;105335;1259;70138;-47
2024/01/10 01:08:36;;;;;;;85.30;35.50;;;;;;;-11.37;77.15;102501.45;105432;1257;73562;-48
2024/01/10 01:11:04;;;;;;;88.10;35.80;;;;;;;-11.40;77.05;102504.54;105362;1257;80128;-46
2024/01/10 01:13:32;;;;;;;96.00;35.50;;;;;;;-11.42;76.98;102506.25;105275;1259;72204;-49
2024/01/10 01:16:00;;;;;;;86.90;34.40;;;;;;;-11.42;77.08;102501.52;105320;1255;70065;-48
2024/01/10 01:18:29;;;;;;;85.90;34.00;;;;;;;-11.46;76.97;102501.19;105353;1259;69979;-47
2024/01/10 01:20:58;;;;;;;92.00;36.30;;;;;;;-11.49;76.81;102499.09;105359;1257;74047;-48
2024/01/10 01:23:26;;;;;;;87.60;35.70;;;;;;;-11.50;77.11;102499.21;105382;1259;81945;-47
2024/01/10 01:26:08;;;;;;;83.10;34.20;;;;;;;-11.48;77.32;102498.52;105353;1257;71537;-48
2024/01/10 01:28:36;;;;;;;86.10;34.50;;;;;;;-11.51;77.36;102500.25;105357;1259;69998;-47
2024/01/10 01:31:05;;;;;;;82.10;34.30;;;;;;;-11.56;77.30;102501.86;105347;1257;70015;-48
2024/01/10 01:33:33;;;;;;;91.50;40.00;;;;;;;-11.56;77.25;102500.86;105351;1259;73904;-47
2024/01/10 01:36:02;;;;;;;95.60;40.10;;;;;;;-11.55;77.06;102496.14;105360;1259;82047;-47
2024/01/10 01:38:30;;;;;;;86.40;36.80;;;;;;;-11.51;77.66;102497.03;105274;1255;70659;-46
2024/01/10 01:40:58;;;;;;;91.70;36.40;;;;;;;-11.50;77.56;102491.77;105317;1259;69969;-49
2024/01/10 01:43:27;;;;;;;83.90;33.70;;;;;;;-11.52;77.58;102488.55;105336;1255;69961;-47
2024/01/10 01:45:55;;;;;;;70.90;32.40;;;;;;;-11.56;77.29;102482.58;105430;1258;72735;-47
2024/01/10 01:48:27;;;;;;;89.40;34.60;;;;;;;-11.54;77.62;102487.64;105372;1257;81483;-47
2024/01/10 01:50:58;;;;;;;85.50;34.40;;;;;;;-11.48;78.07;102486.15;105337;1259;72068;-48
2024/01/10 01:53:28;;;;;;;93.20;38.10;;;;;;;-11.45;78.13;102488.44;105290;1257;70200;-48
2024/01/10 01:55:58;;;;;;;89.00;37.00;;;;;;;-11.41;77.90;102487.44;105381;1257;69984;-47
2024/01/10 01:58:27;;;;;;;93.40;39.10;;;;;;;-11.43;77.64;102486.26;105390;1259;74101;-47
2024/01/10 02:00:55;;;;;;;98.50;39.70;;;;;;;-11.48;77.31;102478.41;105345;1259;81753;-47
2024/01/10 02:03:23;;;;;;;102.20;40.80;;;;;;;-11.52;77.26;102476.52;105381;1257;71691;-47
2024/01/10 02:05:53;;;;;;;92.90;38.00;;;;;;;-11.55;77.20;102475.28;105411;1259;69963;-47
2024/01/10 02:08:22;;;;;;;89.10;37.80;;;;;;;-11.58;77.30;102474.73;105404;1257;69985;-47
2024/01/10 02:10:50;;;;;;;96.30;35.90;;;;;;;-11.60;77.38;102468.99;105335;1259;72866;-47
2024/01/10 02:13:19;;;;;;;102.70;39.30;;;;;;;-11.58;77.60;102471.95;105274;1260;80558;-48
2024/01/10 02:15:48;;;;;;;100.10;37.90;;;;;;;-11.51;78.06;102480.04;105295;1257;71613;-47
2024/01/10 02:18:16;;;;;;;97.20;36.90;;;;;;;-11.46;78.42;102475.86;105301;1259;69961;-49
2024/01/10 02:20:44;;;;;;;92.90;37.10;;;;;;;-11.47;78.09;102477.70;105318;1257;69986;-47
2024/01/10 02:23:13;;;;;;;92.10;37.80;;;;;;;-11.48;77.71;102476.23;105407;1257;72693;-48
2024/01/10 02:25:41;;;;;;;94.50;36.70;;;;;;;-11.48;77.67;102478.71;105432;1257;81444;-48
2024/01/10 02:28:10;;;;;;;96.20;38.50;;;;;;;-11.50;77.75;102476.91;105394;1257;71558;-47
2024/01/10 02:30:38;;;;;;;89.90;36.10;;;;;;;-11.50;77.64;102475.89;105378;1258;69976;-47
2024/01/10 02:33:06;;;;;;;95.80;38.60;;;;;;;-11.48;77.63;102482.27;105331;1259;69986;-47
2024/01/10 02:35:35;;;;;;;89.40;36.70;;;;;;;-11.46;78.15;102476.56;105327;1257;74194;-47
2024/01/10 02:38:03;;;;;;;98.10;36.30;;;;;;;-11.42;78.31;102471.64;105337;1256;81626;-47
2024/01/10 02:40:32;;;;;;;93.70;35.90;;;;;;;-11.40;78.13;102469.95;105381;1259;70122;-47
2024/01/10 02:43:00;;;;;;;86.10;35.30;;;;;;;-11.41;77.97;102467.84;105299;1257;70265;-47
2024/01/10 02:45:28;;;;;;;83.40;35.40;;;;;;;-11.45;78.12;102466.02;105321;1259;69954;-47
2024/01/10 02:47:56;;;;;;;91.80;36.50;;;;;;;-11.46;78.15;102465.08;105300;1259;74133;-47
2024/01/10 02:50:24;;;;;;;90.90;36.20;;;;;;;-11.41;78.42;102467.66;105334;1256;82787;-46
2024/01/10 02:52:53;;;;;;;89.80;38.30;;;;;;;-11.36;78.77;102472.52;105279;1257;72511;-49
2024/01/10 02:55:21;;;;;;;94.90;38.50;;;;;;;-11.31;78.55;102473.42;105408;1255;70014;-47
2024/01/10 02:57:49;;;;;;;89.90;38.90;;;;;;;-11.36;78.21;102471.02;105334;1256;70224;-46
2024/01/10 03:00:17;;;;;;;107.50;42.50;;;;;;;-11.40;78.20;102470.80;105315;1254;74370;-47
2024/01/10 03:02:46;;;;;;;112.40;43.50;;;;;;;-11.44;78.07;102469.48;105372;1259;81472;-46
2024/01/10 03:05:14;;;;;;;107.00;43.50;;;;;;;-11.48;77.63;102464.23;105306;1259;73687;-46
2024/01/10 03:07:42;;;;;;;114.20;45.60;;;;;;;-11.51;77.92;102462.10;105372;1255;70020;-46
2024/01/10 03:10:11;;;;;;;105.70;42.80;;;;;;;-11.55;77.73;102460.75;105358;1256;70012;-46
2024/01/10 03:12:40;;;;;;;106.90;42.40;;;;;;;-11.56;77.92;102460.55;105321;1256;73702;-46
2024/01/10 03:15:09;;;;;;;96.30;39.90;;;;;;;-11.55;77.77;102454.91;105319;1257;81991;-47
2024/01/10 03:17:37;;;;;;;99.10;41.40;;;;;;;-11.55;77.88;102456.91;105327;1257;71645;-46
2024/01/10 03:20:08;;;;;;;104.50;41.00;;;;;;;-11.57;77.86;102459.55;105298;1259;70017;-46
2024/01/10 03:22:37;;;;;;;95.70;39.10;;;;;;;-11.61;77.74;102455.89;105376;1259;70031;-46
2024/01/10 03:25:05;;;;;;;96.90;39.60;;;;;;;-11.64;77.87;102457.11;105368;1256;74280;-47
2024/01/10 03:27:34;;;;;;;89.10;39.60;;;;;;;-11.68;77.23;102454.64;105375;1257;82716;-47
2024/01/10 03:30:02;;;;;;;90.90;37.90;;;;;;;-11.71;77.39;102453.38;105302;1257;72084;-46
2024/01/10 03:32:30;;;;;;;93.50;38.10;;;;;;;-11.74;77.89;102445.19;105338;1256;70002;-48
2024/01/10 03:34:58;;;;;;;93.10;39.00;;;;;;;-11.72;77.85;102443.17;105282;1257;70041;-46
2024/01/10 03:37:27;;;;;;;95.10;37.90;;;;;;;-11.70;78.02;102440.84;105333;1257;74237;-45
2024/01/10 03:39:55;;;;;;;84.40;35.80;;;;;;;-11.72;77.91;102436.23;105348;1256;81739;-46
2024/01/10 03:42:24;;;;;;;92.60;38.20;;;;;;;-11.73;77.70;102430.93;105314;1257;70654;-47
2024/01/10 03:44:52;;;;;;;95.60;37.60;;;;;;;-11.75;78.22;102428.34;105324;1255;69988;-46
2024/01/10 03:47:20;;;;;;;105.10;40.10;;;;;;;-11.77;78.35;102429.06;105310;1255;69950;-47
2024/01/10 03:49:48;;;;;;;100.60;38.30;;;;;;;-11.72;78.51;102431.31;105293;1257;75135;-45
2024/01/10 03:52:16;;;;;;;96.10;38.70;;;;;;;-11.72;78.20;102428.28;105279;1255;81489;-47
2024/01/10 03:54:44;;;;;;;92.20;39.80;;;;;;;-11.76;77.88;102424.21;105288;1257;72160;-47
2024/01/10 03:57:12;;;;;;;92.10;39.90;;;;;;;-11.74;78.15;102419.37;105303;1259;70009;-47
2024/01/10 03:59:41;;;;;;;96.70;37.50;;;;;;;-11.75;78.01;102416.23;105326;1259;69970;-46
2024/01/10 04:02:09;;;;;;;99.00;39.90;;;;;;;-11.75;78.19;102417.95;105333;1257;74011;-46
2024/01/10 04:04:38;;;;;;;94.90;37.20;;;;;;;-11.70;78.54;102418.16;105278;1259;81456;-46
2024/01/10 04:07:07;;;;;;;97.20;38.70;;;;;;;-11.66;78.79;102420.70;105343;1257;71811;-47
2024/01/10 04:09:35;;;;;;;93.30;38.10;;;;;;;-11.62;79.15;102415.49;105343;1256;70236;-47
2024/01/10 04:12:04;;;;;;;107.40;40.70;;;;;;;-11.60;78.96;102421.86;105339;1259;70015;-46
2024/01/10 04:14:32;;;;;;;100.80;41.00;;;;;;;-11.55;79.16;102418.06;105321;1257;73177;-47
2024/01/10 04:17:01;;;;;;;109.70;43.20;;;;;;;-11.50;79.51;102421.41;105323;1256;81954;-47
2024/01/10 04:19:29;;;;;;;109.70;43.50;;;;;;;-11.45;79.35;102423.52;105374;1255;71758;-47
2024/01/10 04:21:58;;;;;;;108.50;43.00;;;;;;;-11.38;79.69;102419.63;105269;1255;69982;-46
2024/01/10 04:24:26;;;;;;;123.60;46.20;;;;;;;-11.30;80.02;102426.58;105353;1259;69924;-46
2024/01/10 04:26:54;;;;;;;112.10;46.00;;;;;;;-11.23;79.90;102430.02;105364;1257;72529;-45
2024/01/10 04:29:22;;;;;;;110.40;42.70;;;;;;;-11.18;79.64;102427.36;105229;1259;81877;-48
2024/01/10 04:31:51;;;;;;;103.10;42.80;;;;;;;-11.16;79.60;102427.25;105418;1257;71550;-47
2024/01/10 04:34:19;;;;;;;103.90;43.50;;;;;;;-11.13;79.36;102425.59;105342;1255;69964;-46
2024/01/10 04:36:47;;;;;;;109.60;43.70;;;;;;;-11.13;79.36;102423.65;105349;1255;70085;-46
2024/01/10 04:39:15;;;;;;;110.40;42.40;;;;;;;-11.13;79.07;102426.81;105263;1257;72496;-46
2024/01/10 04:41:44;;;;;;;114.80;44.10;;;;;;;-11.17;78.91;102427.88;105302;1257;81226;-46
2024/01/10 04:44:12;;;;;;;111.40;43.60;;;;;;;-11.20;78.78;102428.08;105373;1257;71176;-46
2024/01/10 04:46:41;;;;;;;103.90;42.00;;;;;;;-11.22;78.57;102433.70;105307;1259;70027;-45
2024/01/10 04:49:09;;;;;;;103.30;42.20;;;;;;;-11.23;78.55;102437.11;105326;1257;70078;-45
2024/01/10 04:51:39;;;;;;;106.90;40.90;;;;;;;-11.26;78.88;102443.14;105378;1256;73964;-46
2024/01/10 04:54:07;;;;;;;105.50;42.30;;;;;;;-11.25;78.90;102444.42;105338;1257;81946;-45
2024/01/10 04:56:36;;;;;;;106.60;41.20;;;;;;;-11.26;79.24;102434.06;105331;1257;72272;-47
2024/01/10 04:59:06;;;;;;;109.30;41.40;;;;;;;-11.25;79.18;102435.08;105318;1257;69875;-46
2024/01/10 05:01:34;;;;;;;105.40;40.40;;;;;;;-11.26;79.10;102430.49;105351;1256;69989;-46
2024/01/10 05:04:03;;;;;;;95.20;41.20;;;;;;;-11.29;78.87;102429.39;105370;1257;75088;-46
2024/01/10 05:06:31;;;;;;;103.70;39.80;;;;;;;-11.35;78.66;102433.10;105364;1259;81488;-46
2024/01/10 05:09:00;;;;;;;99.00;40.20;;;;;;;-11.39;78.78;102431.89;105252;1256;71944;-46
2024/01/10 05:11:28;;;;;;;110.60;42.20;;;;;;;-11.43;78.63;102426.66;105372;1259;69998;-45
2024/01/10 05:13:57;;;;;;;101.30;41.00;;;;;;;-11.45;78.96;102429.56;105337;1256;69973;-46
2024/01/10 05:16:25;;;;;;;108.80;44.80;;;;;;;-11.44;78.88;102427.47;105344;1257;74129;-46
2024/01/10 05:18:53;;;;;;;109.10;44.10;;;;;;;-11.44;78.80;102430.01;105379;1259;81999;-45
2024/01/10 05:21:21;;;;;;;110.70;42.20;;;;;;;-11.43;79.19;102427.55;105290;1257;72088;-48
2024/01/10 05:23:50;;;;;;;109.90;42.40;;;;;;;-11.42;79.34;102431.48;105314;1259;69985;-46
2024/01/10 05:26:18;;;;;;;117.30;46.80;;;;;;;-11.41;79.26;102430.06;105276;1257;70682;-48
2024/01/10 05:28:46;;;;;;;122.30;48.50;;;;;;;-11.41;79.47;102431.91;105387;1257;74253;-47
2024/01/10 05:31:15;;;;;;;118.70;50.50;;;;;;;-11.40;79.63;102433.52;105281;1256;81451;-47
2024/01/10 05:33:43;;;;;;;114.90;50.90;;;;;;;-11.38;79.61;102431.17;105298;1257;72021;-48
2024/01/10 05:36:11;;;;;;;119.80;49.00;;;;;;;-11.37;79.67;102431.77;105326;1259;69912;-48
2024/01/10 05:38:42;;;;;;;122.50;48.60;;;;;;;-11.34;79.74;102438.39;105211;1257;69989;-46
2024/01/10 05:41:10;;;;;;;111.20;47.30;;;;;;;-11.32;79.86;102437.42;105330;1257;72684;-45
2024/01/10 05:43:39;;;;;;;118.40;48.70;;;;;;;-11.29;79.96;102432.58;105294;1256;81569;-45
2024/01/10 05:46:07;;;;;;;117.10;48.20;;;;;;;-11.30;79.49;102425.73;105291;1257;71598;-46
2024/01/10 05:48:35;;;;;;;160.00;59.70;;;;;;;-11.35;79.41;102420.77;105375;1256;69973;-46
2024/01/10 05:51:04;;;;;;;397.90;122.70;;;;;;;-11.39;79.27;102424.66;105271;1259;70006;-48
2024/01/10 05:53:32;;;;;;;264.20;84.70;;;;;;;-11.39;79.37;102425.66;105286;1257;72501;-45
2024/01/10 05:56:01;;;;;;;231.80;77.30;;;;;;;-11.43;79.05;102426.19;105325;1259;81739;-46
2024/01/10 05:58:29;;;;;;;199.40;69.30;;;;;;;-11.44;79.30;102428.80;105275;1257;73072;-46
2024/01/10 06:00:57;;;;;;;203.90;65.20;;;;;;;-11.46;78.83;102432.34;105295;1257;70043;-45
2024/01/10 06:03:25;;;;;;;184.10;61.60;;;;;;;-11.48;79.19;102438.75;105409;1257;70002;-47
2024/01/10 06:05:54;;;;;;;165.40;57.50;;;;;;;-11.50;78.91;102440.99;105299;1257;73596;-47
2024/01/10 06:08:25;;;;;;;182.20;60.40;;;;;;;-11.54;78.64;102438.89;105376;1259;82627;-46
2024/01/10 06:10:54;;;;;;;159.80;53.50;;;;;;;-11.58;78.86;102441.27;105206;1261;71708;-49
2024/01/10 06:13:22;;;;;;;154.10;52.70;;;;;;;-11.61;78.82;102440.88;105372;1257;69852;-46
2024/01/10 06:15:50;;;;;;;162.30;56.70;;;;;;;-11.63;78.66;102438.80;105337;1259;70000;-46
2024/01/10 06:18:19;;;;;;;213.70;69.80;;;;;;;-11.66;78.55;102438.59;105289;1257;73446;-46
2024/01/10 06:20:47;;;;;;;218.10;66.80;;;;;;;-11.68;78.51;102438.58;105332;1257;82023;-45
2024/01/10 06:23:15;;;;;;;162.40;53.80;;;;;;;-11.70;78.45;102438.08;105279;1257;71896;-46
2024/01/10 06:25:44;;;;;;;102.70;41.60;;;;;;;-11.72;78.70;102431.84;105291;1256;69986;-44
2024/01/10 06:28:12;;;;;;;120.50;41.50;;;;;;;-11.72;78.45;102436.23;105489;1257;69986;-45
2024/01/10 06:30:40;;;;;;;121.20;44.30;;;;;;;-11.72;78.36;102434.31;105335;1259;73846;-45
2024/01/10 06:33:08;;;;;;;102.20;40.20;;;;;;;-11.76;78.53;102429.51;105294;1257;81948;-45
2024/01/10 06:35:37;;;;;;;100.90;40.40;;;;;;;-11.77;78.36;102426.55;105450;1258;71515;-49
2024/01/10 06:38:05;;;;;;;102.40;39.80;;;;;;;-11.74;78.98;102425.96;105381;1257;70324;-47
2024/01/10 06:40:33;;;;;;;104.40;41.80;;;;;;;-11.67;79.44;102426.20;105242;1259;69999;-46
2024/01/10 06:43:02;;;;;;;101.30;40.10;;;;;;;-11.64;78.98;102418.32;105385;1257;74059;-47
2024/01/10 06:45:30;;;;;;;103.10;40.50;;;;;;;-11.63;79.11;102411.80;105276;1257;82486;-47
2024/01/10 06:47:58;;;;;;;105.30;44.00;;;;;;;-11.59;79.46;102412.41;105264;1259;71204;-47
2024/01/10 06:50:26;;;;;;;111.60;42.20;;;;;;;-11.54;79.57;102406.68;105397;1259;69957;-47
2024/01/10 06:52:55;;;;;;;147.70;54.20;;;;;;;-11.52;79.44;102407.39;105485;1258;70006;-47
2024/01/10 06:55:24;;;;;;;151.50;56.10;;;;;;;-11.50;79.52;102401.02;105356;1257;73552;-47
2024/01/10 06:57:52;;;;;;;126.00;48.10;;;;;;;-11.46;79.71;102397.48;105652;1257;83453;-47
2024/01/10 07:00:22;;;;;;;121.20;50.40;;;;;;;-11.40;79.93;102391.81;105376;1255;73136;-47
2024/01/10 07:02:50;;;;;;;166.70;63.70;;;;;;;-11.34;80.22;102387.29;105531;1259;69987;-47
2024/01/10 07:05:19;;;;;;;168.10;66.20;;;;;;;-11.27;80.23;102387.02;105465;1258;70315;-47
2024/01/10 07:07:49;;;;;;;170.00;67.90;;;;;;;-11.24;79.90;102389.16;105388;1259;73611;-48
2024/01/10 07:10:18;;;;;;;147.50;57.20;;;;;;;-11.20;80.21;102382.36;105404;1259;83667;-46
2024/01/10 07:12:47;;;;;;;141.80;54.90;;;;;;;-11.15;80.09;102379.25;105344;1257;70835;-46
2024/01/10 07:15:15;;;;;;;147.80;56.60;;;;;;;-11.12;80.11;102376.80;105327;1259;69934;-47
2024/01/10 07:17:44;;;;;;;156.50;65.20;;;;;;;-11.09;79.99;102372.13;105439;1259;70115;-47
2024/01/10 07:20:12;;;;;;;135.20;57.30;;;;;;;-11.07;80.13;102370.42;105250;1259;73837;-49
2024/01/10 07:22:43;;;;;;;138.00;53.60;;;;;;;-11.04;80.06;102372.05;105354;1259;83679;-47
2024/01/10 07:25:14;;;;;;;151.20;63.90;;;;;;;-10.99;80.12;102379.49;105274;1259;72317;-46
2024/01/10 07:27:43;;;;;;;179.60;77.50;;;;;;;-10.95;80.05;102373.77;105259;1255;69964;-47
2024/01/10 07:30:15;;;;;;;126.50;55.60;;;;;;;-10.93;80.04;102376.33;105401;1257;69966;-47
2024/01/10 07:32:44;;;;;;;122.80;50.90;;;;;;;-10.90;80.06;102380.25;105332;1257;72654;-47
2024/01/10 07:35:16;;;;;;;131.20;57.10;;;;;;;-10.86;80.19;102384.42;105402;1257;81340;-47
2024/01/10 07:37:44;;;;;;;115.60;47.90;;;;;;;-10.84;80.07;102387.01;105249;1257;71810;-47
2024/01/10 07:40:13;;;;;;;117.60;44.60;;;;;;;-10.79;80.11;102388.59;105316;1258;69967;-46
2024/01/10 07:42:42;;;;;;;106.90;45.70;;;;;;;-10.74;80.43;102391.19;105526;1257;69905;-46
2024/01/10 07:45:11;;;;;;;106.80;44.20;;;;;;;-10.71;80.52;102395.81;105442;1259;74503;-48
2024/01/10 07:47:39;;;;;;;119.70;47.60;;;;;;;-10.67;80.72;102398.70;105522;1259;81483;-47
2024/01/10 07:50:09;;;;;;;110.40;44.50;;;;;;;-10.63;80.74;102402.93;105334;1259;70836;-49
2024/01/10 07:52:38;;;;;;;105.40;44.70;;;;;;;-10.59;80.90;102401.00;105399;1257;69917;-48
2024/01/10 07:55:08;;;;;;;109.10;45.50;;;;;;;-10.57;80.91;102399.98;105339;1256;69965;-47
2024/01/10 07:57:36;;;;;;;106.90;43.60;;;;;;;-10.52;81.05;102400.71;105620;1258;73470;-46
2024/01/10 08:00:10;;;;;;;119.00;47.80;;;;;;;-10.46;81.05;102403.43;105491;1255;83214;-47
2024/01/10 08:02:39;;;;;;;116.20;47.00;;;;;;;-10.40;81.45;102402.35;105357;1257;72580;-49
2024/01/10 08:05:12;;;;;;;119.90;47.70;;;;;;;-10.35;81.35;102402.54;106294;1259;69919;-47
2024/01/10 08:07:41;;;;;;;115.10;47.30;;;;;;;-10.30;81.26;102401.76;105361;1259;70538;-48
2024/01/10 08:10:10;;;;;;;121.90;51.00;;;;;;;-10.22;81.63;102401.75;105309;1255;74249;-47
2024/01/10 08:12:44;;;;;;;118.30;48.70;;;;;;;-10.16;81.45;102395.59;105492;1256;81402;-45
2024/01/10 08:15:14;;;;;;;119.20;50.00;;;;;;;-10.12;81.52;102394.02;105366;1257;72247;-47
2024/01/10 08:17:43;;;;;;;113.90;51.00;;;;;;;-10.07;81.55;102394.63;105376;1257;69797;-48
2024/01/10 08:20:14;;;;;;;121.80;50.80;;;;;;;-10.01;81.59;102392.02;105269;1257;69873;-48
2024/01/10 08:22:44;;;;;;;118.40;51.00;;;;;;;-9.96;81.46;102388.16;105248;1257;74298;-48
2024/01/10 08:25:15;;;;;;;130.80;56.10;;;;;;;-9.90;81.54;102385.78;105163;1255;82104;-47
2024/01/10 08:27:45;;;;;;;107.00;45.80;;;;;;;-9.80;81.67;102382.77;106818;1257;72317;-48
2024/01/10 08:30:13;;;;;;;107.60;42.90;;;;;;;-9.76;81.43;102381.77;105255;1259;69908;-48
2024/01/10 08:32:42;;;;;;;96.40;42.70;;;;;;;-9.74;81.51;102386.50;105328;1255;69993;-48
2024/01/10 08:35:10;;;;;;;144.50;61.90;;;;;;;-9.68;81.49;102391.04;105290;1259;73872;-47
2024/01/10 08:37:42;;;;;;;140.50;57.70;;;;;;;-9.61;81.41;102396.57;105281;1259;81836;-49
2024/01/10 08:40:14;;;;;;;115.10;50.50;;;;;;;-9.55;81.42;102399.73;105268;1257;71243;-47
2024/01/10 08:42:42;;;;;;;116.10;48.20;;;;;;;-9.49;81.47;102396.86;105275;1259;70040;-47
2024/01/10 08:45:11;;;;;;;117.60;47.40;;;;;;;-9.40;81.79;102390.94;105309;1259;69979;-48
2024/01/10 08:47:39;;;;;;;116.80;51.30;;;;;;;-9.30;81.93;102387.48;105332;1256;75042;-48
2024/01/10 08:50:08;;;;;;;113.90;48.70;;;;;;;-9.21;81.89;102391.36;105234;1259;81823;-48
2024/01/10 08:52:37;;;;;;;112.90;50.30;;;;;;;-9.11;81.83;102394.25;105308;1257;70775;-47
2024/01/10 08:55:07;;;;;;;128.30;57.20;;;;;;;-9.03;81.77;102392.22;105291;1259;69944;-46
2024/01/10 08:57:40;;;;;;;130.30;61.00;;;;;;;-8.92;81.80;102392.66;105255;1257;69985;-47
2024/01/10 09:00:11;;;;;;;126.10;55.60;;;;;;;-8.82;81.54;102388.96;105268;1257;73863;-47
2024/01/10 09:02:40;;;;;;;121.70;52.90;;;;;;;-8.69;81.53;102395.35;105283;1257;81332;-48
2024/01/10 09:05:09;;;;;;;148.60;58.50;;;;;;;-8.53;81.60;102394.11;105186;1259;71834;-48
2024/01/10 09:07:39;;;;;;;143.30;55.10;;;;;;;-8.36;81.67;102393.64;105272;1259;70031;-47
2024/01/10 09:10:08;;;;;;;149.70;55.40;;;;;;;-8.19;82.06;102393.77;105282;1257;69948;-47
2024/01/10 09:12:36;;;;;;;123.70;48.10;;;;;;;-8.02;81.91;102395.33;105315;1255;74654;-47
2024/01/10 09:15:08;;;;;;;122.90;50.20;;;;;;;-7.89;81.81;102389.80;105268;1259;82321;-48
2024/01/10 09:17:36;;;;;;;134.20;55.90;;;;;;;-7.74;81.76;102389.96;105236;1257;71754;-48
2024/01/10 09:20:05;;;;;;;111.60;49.10;;;;;;;-7.57;81.80;102388.06;105411;1259;69908;-47
2024/01/10 09:22:33;;;;;;;111.50;47.40;;;;;;;-7.39;81.47;102385.74;105288;1259;70041;-48
2024/01/10 09:25:05;;;;;;;107.30;47.90;;;;;;;-7.24;81.66;102387.27;105377;1257;74976;-49
2024/01/10 09:27:34;;;;;;;110.90;48.80;;;;;;;-7.05;81.48;102381.91;105301;1259;82038;-47
2024/01/10 09:30:03;;;;;;;114.90;49.80;;;;;;;-6.93;81.04;102378.41;105232;1257;71725;-48
2024/01/10 09:32:31;;;;;;;107.30;46.80;;;;;;;-6.84;80.45;102375.60;105331;1259;69918;-48
2024/01/10 09:35:00;;;;;;;102.30;45.70;;;;;;;-6.77;79.80;102376.43;105288;1256;69931;-47
2024/01/10 09:37:30;;;;;;;103.60;46.20;;;;;;;-6.65;79.83;102382.45;105418;1259;74328;-47
2024/01/10 09:39:58;;;;;;;103.10;45.70;;;;;;;-6.51;79.66;102378.27;105263;1257;81654;-49
2024/01/10 09:42:27;;;;;;;107.20;45.00;;;;;;;-6.36;79.66;102374.77;105317;1257;72034;-47
2024/01/10 09:44:58;;;;;;;101.70;45.50;;;;;;;-6.21;79.39;102370.94;105282;1255;69837;-48
2024/01/10 09:47:26;;;;;;;100.00;45.10;;;;;;;-6.13;78.90;102373.98;105423;1255;69905;-48
2024/01/10 09:49:55;;;;;;;100.70;45.60;;;;;;;-6.01;78.70;102370.30;105337;1258;74349;-47
2024/01/10 09:52:25;;;;;;;107.70;46.10;;;;;;;-5.92;78.41;102365.61;105358;1257;81729;-48
2024/01/10 09:54:56;;;;;;;125.60;53.50;;;;;;;-5.82;78.25;102359.55;105343;1257;72970;-48
2024/01/10 09:57:25;;;;;;;95.60;46.00;;;;;;;-5.68;78.18;102355.81;105292;1259;70095;-49
2024/01/10 09:59:56;;;;;;;103.90;48.60;;;;;;;-5.55;77.90;102353.36;105334;1258;69961;-48
2024/01/10 10:02:25;;;;;;;108.50;49.50;;;;;;;-5.41;78.02;102350.77;105239;1256;73721;-47
2024/01/10 10:05:04;;;;;;;101.60;48.00;;;;;;;-5.26;78.06;102350.31;105198;1257;82135;-47
2024/01/10 10:07:43;;;;;;;110.40;52.40;;;;;;;-5.09;78.02;102347.51;105293;1259;71428;-48
2024/01/10 10:10:12;;;;;;;108.40;50.60;;;;;;;-4.88;78.16;102349.23;105175;1262;70038;-48
2024/01/10 10:12:52;;;;;;;105.20;49.00;;;;;;;-4.72;78.10;102352.85;105303;1259;70017;-48
2024/01/10 10:15:22;;;;;;;109.50;50.40;;;;;;;-4.56;77.97;102355.13;105295;1257;74887;-48
2024/01/10 10:17:53;;;;;;;106.90;48.60;;;;;;;-4.41;77.55;102359.51;105291;1257;81643;-48
2024/01/10 10:20:33;;;;;;;101.00;48.30;;;;;;;-4.35;77.06;102361.59;105261;1259;73759;-47
2024/01/10 10:23:06;;;;;;;103.40;50.00;;;;;;;-4.21;77.26;102356.85;105242;1256;69884;-48
2024/01/10 10:25:37;;;;;;;104.10;50.80;;;;;;;-4.06;77.13;102355.13;105310;1257;69980;-48
2024/01/10 10:28:06;;;;;;;101.40;48.10;;;;;;;-3.94;76.90;102352.36;105338;1257;75408;-48
2024/01/10 10:30:37;;;;;;;101.50;49.20;;;;;;;-3.77;77.08;102351.02;105268;1256;83392;-48
2024/01/10 10:33:08;;;;;;;97.40;48.40;;;;;;;-3.64;76.73;102350.34;105253;1257;72192;-48
2024/01/10 10:35:36;;;;;;;96.20;47.90;;;;;;;-3.55;76.60;102345.35;105380;1259;70415;-49
2024/01/10 10:38:11;;;;;;;107.00;50.30;;;;;;;-3.37;76.42;102344.72;105242;1259;70018;-48
2024/01/10 10:40:39;;;;;;;105.20;48.80;;;;;;;-3.29;76.39;102336.59;105232;1257;73694;-48
2024/01/10 10:43:14;;;;;;;95.70;47.60;;;;;;;-3.17;76.35;102335.48;105065;1260;205177;-48
2024/01/10 10:45:48;;;;;;;91.30;45.10;;;;;;;-3.00;76.51;102341.64;105178;1257;72677;-48
2024/01/10 10:48:23;;;;;;;97.40;48.10;;;;;;;-2.76;76.44;102339.21;105199;1262;70464;-49
2024/01/10 10:51:06;;;;;;;89.80;46.90;;;;;;;-2.65;76.09;102333.02;105154;1256;69889;-48
2024/01/10 10:53:36;;;;;;;90.70;48.40;;;;;;;-2.46;76.24;102325.21;105203;1262;73325;-48
2024/01/10 10:56:07;;;;;;;96.40;47.70;;;;;;;-2.34;75.60;102326.14;105396;1256;81281;-49
2024/01/10 10:58:38;;;;;;;87.70;45.10;;;;;;;-2.31;74.91;102322.48;105137;1260;71895;-51
2024/01/10 11:01:08;;;;;;;92.90;45.60;;;;;;;-2.23;74.88;102315.67;105279;1260;69896;-49